Palm Beach International Airport
KPBI : now visible

Airfield :











YOU CAN JOIN US ON...

 
LOGIN :

Register | Disclaimer

   EN    FR    IT 

 









Legend :    VFR   Marginal VFR   IFR   Intensive IFR   Very Intensive IFR
Visi :
Ceiling :
>= 8 km
>= 3000ft
5 to 8 km
1000 to 3000 ft
1500m to 5 km
500 to 1000 ft
800 to 1500m
200 to 500 ft
< 800m
< 200 ft
Symbols :   Thunderstorms  Fog  Heavy snow  Heavy precipitations  Wind > 20 kt






- Airport Elevation : 19 ft
- IATA code : PBI


KPBI - Palm Beach International

CURRENT METAR :
  • 050003Z 02003KT 9SM SCT035 BKN075 BKN120 27/23 A2993 RMK AO2 LTG DSNT ALQDS RAEMM TSE02 CB DSNT ALQDS P0000 T02670228 $

EXPIRED METARs :
  • 042253Z 21010KT 10SM TS SCT033CB BKN065 BKN170 29/22 A2993 RMK AO2 WSHFT 2219 LTG DSNT W AND NW SLP133 OCNL LTGICCG W-N TS W-N MOV NE CB DSNT W-NW T02890217 $
  • 042239Z 22013G20KT 10SM TS SCT030CB BKN100 BKN250 29/22 A2990 RMK AO2 WSHFT 2219 LTG DSNT W AND NW OCNL LTGICCG S-NW TS S-NW MOV NE CB DSNT W-NW T02940217 $
  • 042153Z 14015KT 10SM TS SCT035CB BKN100 BKN250 32/23 A2990 RMK AO2 LTG DSNT S-W TSB51 SLP124 OCNL LTGICCG S TS S MOV NE CB DSNT S-W T03170233 $

TAF KPBI
Valid from the 05 at 00:00 until the 06 at 00:00 UTC


042320Z 0500/0524 21007KT P6SM SCT035 SCT070 BKN250
FM050300 VRB04KT P6SM FEW040 SCT250
FM051600 16008KT P6SM VCTS SCT040CB BKN250
PROB30 0518/0524 P6SM TSRA BKN025CB
KZMA FIR / North America



MET'MAP, your aeronautical weather chart ! - Copyright ORBIFLY December 2007 - Disclaimer

ORBIFLY MET'MAP TEAM :

Programming & Development : Alexandra Zaïnal
Concept & original design : Baudouin d'Aumeries
Assistance for programming : Marc-Olivier Méhu
Technical & hardware support : Manuel Goepfert

Contact : metmap@orbifly.com




SOURCES & CREDITS :

   NOAA       Earth
Advisory